createdAt,value
2022-11-20T00:01:29.732Z,97408.31
2022-11-20T00:03:59.010Z,97408.31
2022-11-20T00:06:28.054Z,97406.69
2022-11-20T00:08:57.856Z,97413.38
2022-11-20T00:11:27.021Z,97397.84
2022-11-20T00:14:00.835Z,97391.84
2022-11-20T00:16:30.908Z,97388.41
2022-11-20T00:18:58.436Z,97391.25
2022-11-20T00:21:30.302Z,97394.81
2022-11-20T00:23:59.699Z,97399.44
2022-11-20T00:26:28.620Z,97397.81
2022-11-20T00:28:58.622Z,97399.81
2022-11-20T00:31:26.628Z,97397.09
2022-11-20T00:33:54.559Z,97385.66
2022-11-20T00:36:24.663Z,97399.44
2022-11-20T00:38:53.902Z,97397.66
2022-11-20T00:41:22.056Z,97401.63
2022-11-20T00:43:49.693Z,97399.72
2022-11-20T00:46:20.836Z,97392.66
2022-11-20T00:48:48.839Z,97397.94
2022-11-20T00:51:18.996Z,97399.88
2022-11-20T00:53:47.548Z,97397.41
2022-11-20T00:56:17.646Z,97400.69
2022-11-20T00:58:46.872Z,97398.75
2022-11-20T01:01:18.030Z,97400.44
2022-11-20T01:03:48.257Z,97398.50
2022-11-20T01:06:22.362Z,97393.91
2022-11-20T01:08:51.596Z,97390.91
2022-11-20T01:11:22.659Z,97394.84
2022-11-20T01:13:52.075Z,97400.22
2022-11-20T01:16:25.674Z,97394.50
2022-11-20T01:18:55.656Z,97398.34
2022-11-20T01:21:34.816Z,97410.34
2022-11-20T01:24:03.164Z,97401.88
2022-11-20T01:26:33.901Z,97396.81
2022-11-20T01:29:03.085Z,97394.38
2022-11-20T01:31:36.599Z,97393.78
2022-11-20T01:34:10.386Z,97390.53
2022-11-20T01:36:39.401Z,97388.88
2022-11-20T01:39:18.507Z,97387.25
2022-11-20T01:42:09.877Z,97383.94
2022-11-20T01:44:50.143Z,97387.66
2022-11-20T01:47:45.440Z,97387.88
2022-11-20T01:50:21.844Z,97379.81
2022-11-20T01:53:00.446Z,97392.34
2022-11-20T01:55:39.282Z,97379.78
2022-11-20T01:58:07.474Z,97381.16
2022-11-20T02:00:35.115Z,97381.28
2022-11-20T02:03:08.895Z,97378.81
2022-11-20T02:05:58.818Z,97376.38
2022-11-20T02:08:26.417Z,97371.19
2022-11-20T02:10:53.932Z,97367.09
2022-11-20T02:13:39.875Z,97370.50
2022-11-20T02:16:12.672Z,97366.13
2022-11-20T02:18:41.008Z,97366.13
2022-11-20T02:21:16.247Z,97367.63
2022-11-20T02:24:12.596Z,97364.94
2022-11-20T02:26:58.286Z,97360.81
2022-11-20T02:29:35.573Z,97365.03
2022-11-20T02:32:04.269Z,97370.22
2022-11-20T02:34:31.857Z,97368.88
2022-11-20T02:37:00.806Z,97364.66
2022-11-20T02:39:29.460Z,97360.41
2022-11-20T02:41:57.587Z,97358.66
2022-11-20T02:44:24.998Z,97356.06
2022-11-20T02:46:52.547Z,97362.34
2022-11-20T02:49:20.374Z,97358.22
2022-11-20T02:51:48.108Z,97355.09
2022-11-20T02:54:15.498Z,97352.31
2022-11-20T02:56:43.170Z,97355.53
2022-11-20T02:59:11.223Z,97351.72
2022-11-20T03:01:38.777Z,97355.50
2022-11-20T03:04:06.277Z,97353.06
2022-11-20T03:06:33.919Z,97348.69
2022-11-20T03:09:01.556Z,97351.16
2022-11-20T03:11:29.466Z,97353.47
2022-11-20T03:13:56.983Z,97343.13
2022-11-20T03:16:24.925Z,97349.97
2022-11-20T03:18:53.859Z,97340.53
2022-11-20T03:21:21.448Z,97348.03
2022-11-20T03:23:49.035Z,97356.13
2022-11-20T03:26:19.977Z,97352.84
2022-11-20T03:28:56.496Z,97350.69
2022-11-20T03:31:27.658Z,97353.31
2022-11-20T03:33:56.887Z,97352.63
2022-11-20T03:36:24.512Z,97352.22
2022-11-20T03:38:51.931Z,97351.69
2022-11-20T03:41:24.872Z,97346.59
2022-11-20T03:44:00.775Z,97349.09
2022-11-20T03:46:29.136Z,97349.34
2022-11-20T03:48:57.367Z,97354.78
2022-11-20T03:51:27.471Z,97349.28
2022-11-20T03:53:57.376Z,97349.81
2022-11-20T03:56:26.981Z,97354.31
2022-11-20T03:58:54.596Z,97361.00
2022-11-20T04:01:25.301Z,97350.63
2022-11-20T04:03:54.500Z,97347.47
2022-11-20T04:06:31.046Z,97344.75
2022-11-20T04:08:59.330Z,97337.22
2022-11-20T04:11:32.346Z,97338.41
2022-11-20T04:14:02.233Z,97344.66
2022-11-20T04:16:33.115Z,97341.16
2022-11-20T04:19:02.581Z,97338.69
2022-11-20T04:21:30.093Z,97337.16
2022-11-20T04:23:58.476Z,97331.97
2022-11-20T04:26:28.144Z,97329.53
2022-11-20T04:28:56.262Z,97320.94
2022-11-20T04:31:26.036Z,97325.16
2022-11-20T04:33:53.825Z,97327.75
2022-11-20T04:36:24.116Z,97316.69
2022-11-20T04:38:56.798Z,97321.06
2022-11-20T04:41:27.545Z,97311.78
2022-11-20T04:44:03.613Z,97317.91
2022-11-20T04:46:42.077Z,97312.63
2022-11-20T04:49:10.145Z,97313.44
2022-11-20T04:51:37.627Z,97315.06
2022-11-20T04:54:05.314Z,97311.66
2022-11-20T04:56:33.107Z,97309.88
2022-11-20T04:59:03.933Z,97312.47
2022-11-20T05:01:32.134Z,97307.19
2022-11-20T05:03:59.577Z,97312.09
2022-11-20T05:06:27.035Z,97310.19
2022-11-20T05:08:54.486Z,97318.50
2022-11-20T05:11:22.534Z,97315.00
2022-11-20T05:13:52.283Z,97311.19
2022-11-20T05:16:22.326Z,97312.69
2022-11-20T05:18:51.351Z,97313.50
2022-11-20T05:21:19.323Z,97316.81
2022-11-20T05:23:47.532Z,97310.53
2022-11-20T05:26:20.482Z,97313.13
2022-11-20T05:28:48.966Z,97307.25
2022-11-20T05:31:26.747Z,97309.13
2022-11-20T05:33:58.203Z,97306.69
2022-11-20T05:36:26.036Z,97313.66
2022-11-20T05:38:58.036Z,97310.09
2022-11-20T05:41:29.035Z,97299.03
2022-11-20T05:43:57.057Z,97300.97
2022-11-20T05:46:28.342Z,97300.00
2022-11-20T05:48:57.969Z,97299.03
2022-11-20T05:51:26.439Z,97295.63
2022-11-20T05:53:54.106Z,97299.03
2022-11-20T05:56:22.755Z,97298.13
2022-11-20T05:58:50.526Z,97297.97
2022-11-20T06:01:23.814Z,97284.91
2022-11-20T06:03:52.385Z,97294.28
2022-11-20T06:06:21.001Z,97289.81
2022-11-20T06:08:49.059Z,97289.56
2022-11-20T06:11:17.908Z,97291.28
2022-11-20T06:13:46.023Z,97295.41
2022-11-20T06:16:16.267Z,97303.88
2022-11-20T06:18:43.871Z,97299.13
2022-11-20T06:21:15.438Z,97297.47
2022-11-20T06:23:43.887Z,97301.56
2022-11-20T06:26:16.265Z,97298.72
2022-11-20T06:28:43.887Z,97294.34
2022-11-20T06:31:14.489Z,97293.25
2022-11-20T06:33:43.387Z,97290.66
2022-11-20T06:36:13.076Z,97290.56
2022-11-20T06:38:41.426Z,97288.63
2022-11-20T06:41:14.856Z,97272.97
2022-11-20T06:43:42.192Z,97280.09
2022-11-20T06:46:11.745Z,97275.16
2022-11-20T06:48:39.350Z,97277.88
2022-11-20T06:51:08.781Z,97279.22
2022-11-20T06:53:36.936Z,97272.69
2022-11-20T06:56:05.411Z,97271.66
2022-11-20T06:58:34.566Z,97266.59
2022-11-20T07:01:08.445Z,97262.78
2022-11-20T07:03:36.366Z,97263.75
2022-11-20T07:06:05.024Z,97262.41
2022-11-20T07:08:33.286Z,97266.28
2022-11-20T07:11:06.615Z,97258.16
2022-11-20T07:13:34.842Z,97260.81
2022-11-20T07:16:04.736Z,97250.22
2022-11-20T07:18:32.289Z,97248.59
2022-11-20T07:21:04.036Z,97252.78
2022-11-20T07:23:31.765Z,97247.72
2022-11-20T07:25:59.565Z,97244.25
2022-11-20T07:28:27.366Z,97247.00
2022-11-20T07:30:54.988Z,97244.81
2022-11-20T07:33:22.653Z,97245.63
2022-11-20T07:35:50.093Z,97252.56
2022-11-20T07:38:17.815Z,97244.03
2022-11-20T07:40:45.428Z,97248.44
2022-11-20T07:43:12.929Z,97241.06
2022-11-20T07:45:40.435Z,97243.09
2022-11-20T07:48:07.980Z,97233.09
2022-11-20T07:50:35.733Z,97225.34
2022-11-20T07:53:04.858Z,97222.81
2022-11-20T07:55:33.801Z,97224.72
2022-11-20T07:58:01.282Z,97223.88
2022-11-20T08:00:29.170Z,97223.47
2022-11-20T08:02:56.745Z,97217.22
2022-11-20T08:05:24.367Z,97221.50
2022-11-20T08:07:51.813Z,97225.38
2022-11-20T08:10:19.558Z,97228.19
2022-11-20T08:13:12.356Z,97232.53
2022-11-20T08:15:41.197Z,97227.84
2022-11-20T08:18:30.478Z,97231.63
2022-11-20T08:21:03.612Z,97230.31
2022-11-20T08:23:31.353Z,97230.38
2022-11-20T08:25:58.777Z,97231.06
2022-11-20T08:28:26.449Z,97237.72
2022-11-20T08:31:00.108Z,97230.44
2022-11-20T08:33:28.166Z,97232.13
2022-11-20T08:36:02.978Z,97227.81
2022-11-20T08:38:31.786Z,97227.75
2022-11-20T08:41:18.827Z,97228.84
2022-11-20T08:43:46.602Z,97224.22
2022-11-20T08:46:13.998Z,97217.06
2022-11-20T08:48:41.750Z,97222.50
2022-11-20T08:51:09.326Z,97223.78
2022-11-20T08:53:36.748Z,97214.66
2022-11-20T08:56:04.647Z,97208.59
2022-11-20T08:58:48.854Z,97206.66
2022-11-20T09:01:21.218Z,97207.28
2022-11-20T09:03:48.837Z,97208.59
2022-11-20T09:06:16.956Z,97208.03
2022-11-20T09:08:44.827Z,97205.09
2022-11-20T09:11:12.327Z,97215.06
2022-11-20T09:13:39.803Z,97209.94
2022-11-20T09:16:09.646Z,97201.22
2022-11-20T09:18:38.478Z,97199.41
2022-11-20T09:21:08.099Z,97199.63
2022-11-20T09:23:36.997Z,97201.00
2022-11-20T09:26:11.558Z,97201.31
2022-11-20T09:28:39.353Z,97208.75
2022-11-20T09:31:23.187Z,97208.84
2022-11-20T09:33:50.765Z,97196.59
2022-11-20T09:36:19.668Z,97201.88
2022-11-20T09:38:47.906Z,97200.47
2022-11-20T09:41:57.467Z,97200.25
2022-11-20T09:44:34.137Z,97203.81
2022-11-20T09:47:39.276Z,97204.53
2022-11-20T09:50:44.056Z,97206.38
2022-11-20T09:53:37.960Z,97208.84
2022-11-20T09:56:06.178Z,97201.59
2022-11-20T09:58:40.753Z,97200.72
2022-11-20T10:01:24.565Z,97194.84
2022-11-20T10:04:01.067Z,97186.44
2022-11-20T10:06:32.914Z,97194.41
2022-11-20T10:09:07.981Z,97190.88
2022-11-20T10:11:49.552Z,97193.25
2022-11-20T10:14:35.169Z,97192.31
2022-11-20T10:17:02.637Z,97186.13
2022-11-20T10:19:54.247Z,97185.16
2022-11-20T10:22:27.602Z,97182.16
2022-11-20T10:25:19.270Z,97179.53
2022-11-20T10:27:55.898Z,97175.81
2022-11-20T10:30:26.320Z,97166.56
2022-11-20T10:33:01.212Z,97165.47
2022-11-20T10:36:04.010Z,97156.63
2022-11-20T10:38:37.960Z,97166.16
2022-11-20T10:41:25.552Z,97168.78
2022-11-20T10:44:01.868Z,97162.06
2022-11-20T10:46:38.675Z,97156.94
2022-11-20T10:49:16.906Z,97162.16
2022-11-20T10:52:18.505Z,97167.03
2022-11-20T10:54:56.617Z,97161.94
2022-11-20T10:57:26.666Z,97164.25
2022-11-20T10:59:54.217Z,97159.66
2022-11-20T11:02:32.347Z,97161.41
2022-11-20T11:05:14.268Z,97156.22
2022-11-20T11:07:43.186Z,97162.00
2022-11-20T11:10:36.669Z,97154.69
2022-11-20T11:13:04.277Z,97156.88
2022-11-20T11:15:40.087Z,97155.31
2022-11-20T11:18:11.787Z,97162.78
2022-11-20T11:20:40.019Z,97160.91
2022-11-20T11:23:29.330Z,97155.22
2022-11-20T11:26:02.128Z,97147.44
2022-11-20T11:28:30.118Z,97144.66
2022-11-20T11:30:57.594Z,97136.63
2022-11-20T11:33:25.178Z,97133.50
2022-11-20T11:36:05.303Z,97125.25
2022-11-20T11:38:38.153Z,97125.78
2022-11-20T11:41:07.640Z,97126.94
2022-11-20T11:43:55.746Z,97120.97
2022-11-20T11:46:28.308Z,97114.84
2022-11-20T11:49:02.566Z,97110.41
2022-11-20T11:51:39.246Z,97115.09
2022-11-20T11:54:30.028Z,97108.84
2022-11-20T11:57:02.586Z,97099.22
2022-11-20T12:00:13.552Z,97096.59
2022-11-20T12:02:47.087Z,97092.06
2022-11-20T12:05:25.773Z,97089.38
2022-11-20T12:08:12.818Z,97075.81
2022-11-20T12:10:53.263Z,97083.69
2022-11-20T12:13:27.765Z,97084.53
2022-11-20T12:15:55.757Z,97070.94
2022-11-20T12:18:24.023Z,97082.19
2022-11-20T12:21:23.837Z,97081.09
2022-11-20T12:23:59.986Z,97083.59
2022-11-20T12:26:39.269Z,97074.00
2022-11-20T12:29:31.097Z,97070.34
2022-11-20T12:32:19.597Z,97074.00
2022-11-20T12:34:47.138Z,97073.34
2022-11-20T12:37:17.874Z,97079.25
2022-11-20T12:39:51.588Z,97073.94
2022-11-20T12:42:40.477Z,97074.75
2022-11-20T12:45:43.469Z,97076.41
2022-11-20T12:48:22.816Z,97071.09
2022-11-20T12:51:25.637Z,97067.47
2022-11-20T12:54:27.026Z,97066.59
2022-11-20T12:57:07.756Z,97071.78
2022-11-20T12:59:46.306Z,97069.28
2022-11-20T13:02:34.697Z,97075.84
2022-11-20T13:05:24.227Z,97075.56
2022-11-20T13:07:54.298Z,97063.94
2022-11-20T13:10:46.307Z,97065.09
2022-11-20T13:13:22.628Z,97066.47
2022-11-20T13:16:14.481Z,97072.03
2022-11-20T13:18:43.777Z,97071.53
2022-11-20T13:21:22.858Z,97076.53
2022-11-20T13:23:50.397Z,97074.56
2022-11-20T13:26:23.638Z,97070.31
2022-11-20T13:29:12.203Z,97059.28
2022-11-20T13:31:44.648Z,97064.25
2022-11-20T13:34:25.736Z,97065.34
2022-11-20T13:36:57.096Z,97062.34
2022-11-20T13:39:27.747Z,97054.84
2022-11-20T13:42:19.715Z,97051.59
2022-11-20T13:44:56.422Z,97058.56
2022-11-20T13:47:26.744Z,97054.50
2022-11-20T13:49:56.507Z,97058.38
2022-11-20T13:52:36.107Z,97050.69
2022-11-20T13:55:18.906Z,97052.69
2022-11-20T13:58:24.028Z,97049.41
2022-11-20T14:01:11.712Z,97048.59
2022-11-20T14:06:32.966Z,97047.81
2022-11-20T14:09:01.292Z,97054.13
2022-11-20T14:11:31.398Z,97046.56
2022-11-20T14:14:02.075Z,97057.47
2022-11-20T14:16:32.503Z,97060.75
2022-11-20T14:19:21.464Z,97058.47
2022-11-20T14:21:50.576Z,97057.84
2022-11-20T14:24:24.020Z,97055.50
2022-11-20T14:26:52.277Z,97052.59
2022-11-20T14:29:23.768Z,97046.28
2022-11-20T14:31:56.762Z,97049.34
2022-11-20T14:34:29.894Z,97043.56
2022-11-20T14:37:02.822Z,97047.81
2022-11-20T14:39:41.516Z,97049.97
2022-11-20T14:42:28.926Z,97052.22
2022-11-20T14:45:00.588Z,97054.78
2022-11-20T14:47:32.296Z,97053.59
2022-11-20T14:50:05.758Z,97051.94
2022-11-20T14:52:36.206Z,97044.81
2022-11-20T14:55:04.026Z,97048.63
2022-11-20T14:57:34.118Z,97037.78
2022-11-20T15:00:16.570Z,97038.59
2022-11-20T15:02:52.125Z,97038.97
2022-11-20T15:05:23.168Z,97036.06
2022-11-20T15:08:05.146Z,97037.22
2022-11-20T15:10:33.437Z,97046.25
2022-11-20T15:13:08.364Z,97039.59
2022-11-20T15:15:53.473Z,97049.59
2022-11-20T15:18:24.982Z,97041.84
2022-11-20T15:20:54.832Z,97044.16
2022-11-20T15:23:22.345Z,97043.25
2022-11-20T15:25:50.463Z,97036.28
2022-11-20T15:28:33.320Z,97041.22
2022-11-20T15:31:02.019Z,97043.75
2022-11-20T15:33:29.788Z,97044.00
2022-11-20T15:35:58.051Z,97037.94
2022-11-20T15:38:25.714Z,97041.06
2022-11-20T15:40:53.226Z,97037.19
2022-11-20T15:43:20.803Z,97037.25
2022-11-20T15:45:55.199Z,97045.97
2022-11-20T15:48:30.067Z,97039.63
2022-11-20T15:51:06.400Z,97042.16
2022-11-20T15:53:34.067Z,97035.16
2022-11-20T15:56:01.837Z,97035.03
2022-11-20T15:58:29.679Z,97037.19
2022-11-20T16:00:57.584Z,97029.72
2022-11-20T16:03:25.168Z,97033.50
2022-11-20T16:05:52.617Z,97033.38
2022-11-20T16:08:20.152Z,97033.25
2022-11-20T16:10:47.611Z,97029.16
2022-11-20T16:13:35.814Z,97029.97
2022-11-20T16:16:09.179Z,97033.13
2022-11-20T16:18:36.634Z,97038.22
2022-11-20T16:21:04.608Z,97020.28
2022-11-20T16:23:32.227Z,97017.00
2022-11-20T16:25:59.759Z,97025.50
2022-11-20T16:28:27.217Z,97024.84
2022-11-20T16:30:54.744Z,97023.84
2022-11-20T16:33:22.205Z,97023.38
2022-11-20T16:35:49.685Z,97023.56
2022-11-20T16:38:17.165Z,97030.75
2022-11-20T16:40:44.681Z,97033.22
2022-11-20T16:43:15.188Z,97037.00
2022-11-20T16:45:44.737Z,97033.38
2022-11-20T16:48:17.024Z,97037.31
2022-11-20T16:50:52.887Z,97041.28
2022-11-20T16:53:22.342Z,97049.09
2022-11-20T16:55:49.898Z,97044.22
2022-11-20T16:58:17.469Z,97041.44
2022-11-20T17:00:51.157Z,97034.91
2022-11-20T17:03:19.456Z,97033.59
2022-11-20T17:05:46.970Z,97033.78
2022-11-20T17:08:14.478Z,97035.88
2022-11-20T17:10:42.741Z,97032.78
2022-11-20T17:13:10.390Z,97047.84
2022-11-20T17:15:37.965Z,97054.22
2022-11-20T17:18:05.445Z,97054.34
2022-11-20T17:20:32.988Z,97044.44
2022-11-20T17:23:00.489Z,97037.09
2022-11-20T17:25:27.961Z,97040.84
2022-11-20T17:27:55.476Z,97032.53
2022-11-20T17:30:22.939Z,97027.97
2022-11-20T17:32:50.399Z,97035.00
2022-11-20T17:35:17.930Z,97042.00
2022-11-20T17:37:45.379Z,97034.19
2022-11-20T17:40:13.149Z,97034.00
2022-11-20T17:42:40.687Z,97028.97
2022-11-20T17:45:08.309Z,97022.09
2022-11-20T17:47:37.248Z,97031.25
2022-11-20T17:50:05.117Z,97022.44
2022-11-20T17:52:32.580Z,97035.66
2022-11-20T17:55:00.141Z,97040.03
2022-11-20T17:57:46.065Z,97037.75
2022-11-20T18:00:16.620Z,97034.03
2022-11-20T18:02:44.438Z,97035.81
2022-11-20T18:05:12.351Z,97028.66
2022-11-20T18:07:41.917Z,97032.41
2022-11-20T18:10:10.219Z,97023.94
2022-11-20T18:12:37.928Z,97025.41
2022-11-20T18:15:05.668Z,97020.84
2022-11-20T18:17:33.188Z,97023.78
2022-11-20T18:20:28.040Z,97021.50
2022-11-20T18:22:48.740Z,97016.44
2022-11-20T18:25:16.288Z,97015.63
2022-11-20T18:27:44.020Z,97019.06
2022-11-20T18:30:12.254Z,97014.00
2022-11-20T18:32:39.625Z,97017.09
2022-11-20T18:35:07.495Z,97020.22
2022-11-20T18:37:34.929Z,97019.88
2022-11-20T18:40:02.815Z,97026.09
2022-11-20T18:42:49.059Z,97014.00
2022-11-20T18:45:16.730Z,97018.09
2022-11-20T18:47:44.210Z,97016.28
2022-11-20T18:50:11.718Z,97020.22
2022-11-20T18:52:44.700Z,97012.38
2022-11-20T18:55:12.983Z,97018.56
2022-11-20T18:57:40.679Z,97014.50
2022-11-20T19:00:09.897Z,97013.88
2022-11-20T19:02:42.293Z,97006.50
2022-11-20T19:05:15.188Z,97007.84
2022-11-20T19:07:43.083Z,96998.06
2022-11-20T19:10:11.102Z,97011.44
2022-11-20T19:12:38.737Z,97015.66
2022-11-20T19:15:06.827Z,97008.81
2022-11-20T19:17:34.755Z,97009.63
2022-11-20T19:20:02.349Z,97006.88
2022-11-20T19:22:29.867Z,97004.25
2022-11-20T19:24:57.739Z,97006.34
2022-11-20T19:27:25.174Z,97002.78
2022-11-20T19:29:52.687Z,96998.19
2022-11-20T19:32:20.288Z,96997.38
2022-11-20T19:39:01.367Z,96989.75
2022-11-20T19:41:31.633Z,96982.25
2022-11-20T19:44:07.513Z,96982.56
2022-11-20T19:46:36.777Z,96975.25
2022-11-20T19:49:06.751Z,96969.03
2022-11-20T19:51:35.583Z,96977.50
2022-11-20T19:54:04.046Z,96983.69
2022-11-20T19:56:33.566Z,96971.16
2022-11-20T19:59:01.422Z,96977.34
2022-11-20T20:01:31.195Z,96968.53
2022-11-20T20:04:05.354Z,96972.63
2022-11-20T20:06:35.495Z,96974.75
2022-11-20T20:09:06.493Z,96978.66
2022-11-20T20:11:34.949Z,96975.91
2022-11-20T20:14:04.385Z,96972.13
2022-11-20T20:16:32.217Z,96973.78
2022-11-20T20:19:01.916Z,96968.56
2022-11-20T20:21:30.762Z,96977.69
2022-11-20T20:23:59.305Z,96977.69
2022-11-20T20:26:29.133Z,96967.25
2022-11-20T20:28:57.104Z,96954.88
2022-11-20T20:31:27.108Z,96957.28
2022-11-20T20:33:55.561Z,96955.81
2022-11-20T20:36:24.440Z,96957.28
2022-11-20T20:38:53.925Z,96957.91
2022-11-20T20:41:23.316Z,96962.78
2022-11-20T20:44:09.472Z,96958.91
2022-11-20T20:46:37.123Z,96961.66
2022-11-20T20:49:04.701Z,96954.00
2022-11-20T20:51:32.272Z,96949.28
2022-11-20T20:53:59.741Z,96941.97
2022-11-20T20:56:27.313Z,96934.28
2022-11-20T20:58:54.817Z,96935.94
2022-11-20T21:01:23.092Z,96928.13
2022-11-20T21:03:50.641Z,96924.03
2022-11-20T21:06:18.285Z,96913.44
2022-11-20T21:08:46.096Z,96907.72
2022-11-20T21:11:16.271Z,96896.97
2022-11-20T21:13:45.645Z,96891.75
2022-11-20T21:16:14.884Z,96885.91
2022-11-20T21:18:42.545Z,96883.13
2022-11-20T21:21:31.801Z,96882.16
2022-11-20T21:23:59.486Z,96877.25
2022-11-20T21:26:27.406Z,96871.81
2022-11-20T21:28:56.405Z,96869.06
2022-11-20T21:31:26.773Z,96850.47
2022-11-20T21:33:56.250Z,96856.97
2022-11-20T21:36:32.154Z,96845.38
2022-11-20T21:38:59.833Z,96836.16
2022-11-20T21:41:30.316Z,96836.25
2022-11-20T21:44:29.602Z,96831.84
2022-11-20T21:46:46.677Z,96832.97
2022-11-20T21:49:15.374Z,96821.75
2022-11-20T21:51:42.945Z,96824.16
2022-11-20T21:54:11.707Z,96817.78
2022-11-20T21:56:39.464Z,96812.53
2022-11-20T21:59:06.843Z,96814.44
2022-11-20T22:01:34.967Z,96796.28
2022-11-20T22:04:03.064Z,96799.19
2022-11-20T22:06:33.363Z,96797.69
2022-11-20T22:09:02.337Z,96802.00
2022-11-20T22:11:30.483Z,96794.28
2022-11-20T22:14:16.884Z,96787.91
2022-11-20T22:16:44.629Z,96778.09
2022-11-20T22:19:15.285Z,96785.13
2022-11-20T22:21:43.123Z,96778.44
2022-11-20T22:24:15.575Z,96772.41
2022-11-20T22:26:43.676Z,96767.19
2022-11-20T22:29:20.979Z,96766.91
2022-11-20T22:31:48.617Z,96751.56
2022-11-20T22:34:16.040Z,96752.38
2022-11-20T22:36:43.610Z,96747.00
2022-11-20T22:39:11.033Z,96741.22
2022-11-20T22:41:38.612Z,96739.63
2022-11-20T22:44:07.995Z,96739.16
2022-11-20T22:46:37.518Z,96741.94
2022-11-20T22:49:08.738Z,96745.09
2022-11-20T22:51:38.998Z,96732.72
2022-11-20T22:54:06.926Z,96740.63
2022-11-20T22:56:34.499Z,96742.25
2022-11-20T22:59:02.034Z,96742.25
2022-11-20T23:01:39.538Z,96729.88
2022-11-20T23:04:10.572Z,96728.91
2022-11-20T23:06:38.537Z,96729.28
2022-11-20T23:09:07.773Z,96721.59
2022-11-20T23:11:35.966Z,96720.78
2022-11-20T23:14:12.330Z,96722.59
2022-11-20T23:16:40.174Z,96715.56
2022-11-20T23:19:10.734Z,96706.13
2022-11-20T23:21:40.614Z,96705.56
2022-11-20T23:24:09.501Z,96700.19
2022-11-20T23:26:39.643Z,96696.88
2022-11-20T23:29:07.469Z,96694.00
2022-11-20T23:31:36.039Z,96687.53
2022-11-20T23:34:04.183Z,96694.28
2022-11-20T23:36:31.616Z,96689.06
2022-11-20T23:38:59.217Z,96690.16
2022-11-20T23:41:26.696Z,96675.03
2022-11-20T23:43:54.406Z,96686.72
2022-11-20T23:46:21.879Z,96680.13
2022-11-20T23:48:49.520Z,96672.66
2022-11-20T23:51:17.584Z,96663.66
2022-11-20T23:53:45.205Z,96662.56
2022-11-20T23:56:14.845Z,96660.69
2022-11-20T23:58:42.699Z,96643.84
